sensor_id;sensor_type;location;lat;lon;timestamp;P1;durP1;ratioP1;P2;durP2;ratioP2
4448;SDS011;2237;51.870;6.160;2023-01-24T00:00:45;15.98;;;7.18;;
4448;SDS011;2237;51.870;6.160;2023-01-24T00:03:12;14.90;;;7.22;;
4448;SDS011;2237;51.870;6.160;2023-01-24T00:05:42;11.82;;;5.82;;
4448;SDS011;2237;51.870;6.160;2023-01-24T00:08:13;16.13;;;6.25;;
4448;SDS011;2237;51.870;6.160;2023-01-24T00:10:40;12.93;;;5.90;;
4448;SDS011;2237;51.870;6.160;2023-01-24T00:13:07;14.15;;;6.18;;
4448;SDS011;2237;51.870;6.160;2023-01-24T00:15:35;14.05;;;6.53;;
4448;SDS011;2237;51.870;6.160;2023-01-24T00:18:01;13.85;;;6.18;;
4448;SDS011;2237;51.870;6.160;2023-01-24T00:20:28;11.07;;;5.88;;
4448;SDS011;2237;51.870;6.160;2023-01-24T00:22:54;11.52;;;5.45;;
4448;SDS011;2237;51.870;6.160;2023-01-24T00:25:20;13.15;;;6.20;;
4448;SDS011;2237;51.870;6.160;2023-01-24T00:27:48;14.50;;;6.13;;
4448;SDS011;2237;51.870;6.160;2023-01-24T00:30:15;11.60;;;5.43;;
4448;SDS011;2237;51.870;6.160;2023-01-24T00:32:41;13.32;;;5.72;;
4448;SDS011;2237;51.870;6.160;2023-01-24T00:35:07;13.07;;;6.40;;
4448;SDS011;2237;51.870;6.160;2023-01-24T00:37:34;14.40;;;6.72;;
4448;SDS011;2237;51.870;6.160;2023-01-24T00:40:00;13.52;;;5.78;;
4448;SDS011;2237;51.870;6.160;2023-01-24T00:42:26;14.55;;;6.50;;
4448;SDS011;2237;51.870;6.160;2023-01-24T00:44:52;14.63;;;6.13;;
4448;SDS011;2237;51.870;6.160;2023-01-24T00:47:18;10.93;;;5.40;;
4448;SDS011;2237;51.870;6.160;2023-01-24T00:49:45;13.05;;;5.82;;
4448;SDS011;2237;51.870;6.160;2023-01-24T00:52:11;12.55;;;5.78;;
4448;SDS011;2237;51.870;6.160;2023-01-24T00:54:38;15.27;;;6.82;;
4448;SDS011;2237;51.870;6.160;2023-01-24T00:57:04;14.77;;;5.95;;
4448;SDS011;2237;51.870;6.160;2023-01-24T00:59:30;12.93;;;6.05;;
4448;SDS011;2237;51.870;6.160;2023-01-24T01:01:56;11.40;;;6.00;;
4448;SDS011;2237;51.870;6.160;2023-01-24T01:04:23;12.90;;;6.18;;
4448;SDS011;2237;51.870;6.160;2023-01-24T01:06:49;15.43;;;6.97;;
4448;SDS011;2237;51.870;6.160;2023-01-24T01:09:15;15.13;;;6.82;;
4448;SDS011;2237;51.870;6.160;2023-01-24T01:11:41;14.25;;;6.10;;
4448;SDS011;2237;51.870;6.160;2023-01-24T01:14:08;15.80;;;7.00;;
4448;SDS011;2237;51.870;6.160;2023-01-24T01:16:34;14.27;;;5.82;;
4448;SDS011;2237;51.870;6.160;2023-01-24T01:19:04;13.43;;;6.15;;
4448;SDS011;2237;51.870;6.160;2023-01-24T01:21:31;14.77;;;6.85;;
4448;SDS011;2237;51.870;6.160;2023-01-24T01:23:57;11.90;;;4.95;;
4448;SDS011;2237;51.870;6.160;2023-01-24T01:26:23;12.85;;;5.68;;
4448;SDS011;2237;51.870;6.160;2023-01-24T01:28:50;12.00;;;5.80;;
4448;SDS011;2237;51.870;6.160;2023-01-24T01:31:16;16.77;;;7.22;;
4448;SDS011;2237;51.870;6.160;2023-01-24T01:33:43;14.95;;;7.40;;
4448;SDS011;2237;51.870;6.160;2023-01-24T01:36:10;17.55;;;7.47;;
4448;SDS011;2237;51.870;6.160;2023-01-24T01:38:36;13.80;;;6.22;;
4448;SDS011;2237;51.870;6.160;2023-01-24T01:41:02;16.23;;;7.60;;
4448;SDS011;2237;51.870;6.160;2023-01-24T01:43:30;16.55;;;7.45;;
4448;SDS011;2237;51.870;6.160;2023-01-24T01:48:32;12.55;;;6.15;;
4448;SDS011;2237;51.870;6.160;2023-01-24T01:51:10;15.52;;;6.80;;
4448;SDS011;2237;51.870;6.160;2023-01-24T01:53:43;16.52;;;7.00;;
4448;SDS011;2237;51.870;6.160;2023-01-24T01:56:16;16.75;;;6.95;;
4448;SDS011;2237;51.870;6.160;2023-01-24T01:58:45;15.43;;;6.65;;
4448;SDS011;2237;51.870;6.160;2023-01-24T02:01:11;15.80;;;6.68;;
4448;SDS011;2237;51.870;6.160;2023-01-24T02:03:39;16.90;;;6.78;;
4448;SDS011;2237;51.870;6.160;2023-01-24T02:06:46;14.98;;;7.38;;
4448;SDS011;2237;51.870;6.160;2023-01-24T02:09:02;13.30;;;6.20;;
4448;SDS011;2237;51.870;6.160;2023-01-24T02:11:30;16.50;;;7.55;;
4448;SDS011;2237;51.870;6.160;2023-01-24T02:14:06;15.98;;;6.78;;
4448;SDS011;2237;51.870;6.160;2023-01-24T02:16:52;13.25;;;6.10;;
4448;SDS011;2237;51.870;6.160;2023-01-24T02:19:30;10.88;;;4.80;;
4448;SDS011;2237;51.870;6.160;2023-01-24T02:22:01;16.13;;;6.90;;
4448;SDS011;2237;51.870;6.160;2023-01-24T02:24:31;17.52;;;7.70;;
4448;SDS011;2237;51.870;6.160;2023-01-24T02:27:00;15.48;;;7.28;;
4448;SDS011;2237;51.870;6.160;2023-01-24T02:29:26;17.38;;;7.13;;
4448;SDS011;2237;51.870;6.160;2023-01-24T02:34:22;16.13;;;6.93;;
4448;SDS011;2237;51.870;6.160;2023-01-24T02:37:02;17.15;;;7.70;;
4448;SDS011;2237;51.870;6.160;2023-01-24T02:41:57;15.60;;;7.47;;
4448;SDS011;2237;51.870;6.160;2023-01-24T02:44:28;14.43;;;6.75;;
4448;SDS011;2237;51.870;6.160;2023-01-24T02:46:55;16.98;;;8.13;;
4448;SDS011;2237;51.870;6.160;2023-01-24T02:49:21;18.42;;;7.88;;
4448;SDS011;2237;51.870;6.160;2023-01-24T02:51:47;16.90;;;7.88;;
4448;SDS011;2237;51.870;6.160;2023-01-24T02:54:32;17.67;;;8.00;;
4448;SDS011;2237;51.870;6.160;2023-01-24T02:56:59;15.10;;;7.38;;
4448;SDS011;2237;51.870;6.160;2023-01-24T02:59:44;17.52;;;7.28;;
4448;SDS011;2237;51.870;6.160;2023-01-24T03:02:10;17.05;;;8.00;;
4448;SDS011;2237;51.870;6.160;2023-01-24T03:04:36;14.30;;;6.93;;
4448;SDS011;2237;51.870;6.160;2023-01-24T03:07:03;16.33;;;7.25;;
4448;SDS011;2237;51.870;6.160;2023-01-24T03:09:29;16.17;;;7.93;;
4448;SDS011;2237;51.870;6.160;2023-01-24T03:12:02;16.75;;;7.93;;
4448;SDS011;2237;51.870;6.160;2023-01-24T03:14:47;15.85;;;7.65;;
4448;SDS011;2237;51.870;6.160;2023-01-24T03:17:32;16.23;;;8.05;;
4448;SDS011;2237;51.870;6.160;2023-01-24T03:20:17;16.20;;;7.68;;
4448;SDS011;2237;51.870;6.160;2023-01-24T03:23:02;15.73;;;7.53;;
4448;SDS011;2237;51.870;6.160;2023-01-24T03:25:47;16.90;;;7.60;;
4448;SDS011;2237;51.870;6.160;2023-01-24T03:28:31;12.75;;;5.43;;
4448;SDS011;2237;51.870;6.160;2023-01-24T03:31:16;15.93;;;6.93;;
4448;SDS011;2237;51.870;6.160;2023-01-24T03:34:01;16.83;;;8.18;;
4448;SDS011;2237;51.870;6.160;2023-01-24T03:36:46;14.38;;;6.22;;
4448;SDS011;2237;51.870;6.160;2023-01-24T03:39:12;19.70;;;7.93;;
4448;SDS011;2237;51.870;6.160;2023-01-24T03:41:57;14.35;;;7.07;;
4448;SDS011;2237;51.870;6.160;2023-01-24T03:44:23;14.77;;;7.07;;
4448;SDS011;2237;51.870;6.160;2023-01-24T03:46:49;16.98;;;8.02;;
4448;SDS011;2237;51.870;6.160;2023-01-24T03:49:16;16.23;;;7.57;;
4448;SDS011;2237;51.870;6.160;2023-01-24T03:51:43;19.45;;;8.60;;
4448;SDS011;2237;51.870;6.160;2023-01-24T03:54:27;18.45;;;8.52;;
4448;SDS011;2237;51.870;6.160;2023-01-24T03:56:53;21.52;;;8.82;;
4448;SDS011;2237;51.870;6.160;2023-01-24T03:59:20;17.48;;;8.00;;
4448;SDS011;2237;51.870;6.160;2023-01-24T04:01:46;20.55;;;8.73;;
4448;SDS011;2237;51.870;6.160;2023-01-24T04:04:12;16.67;;;7.68;;
4448;SDS011;2237;51.870;6.160;2023-01-24T04:06:38;16.70;;;7.78;;
4448;SDS011;2237;51.870;6.160;2023-01-24T04:09:05;19.00;;;8.18;;
4448;SDS011;2237;51.870;6.160;2023-01-24T04:11:31;16.55;;;8.32;;
4448;SDS011;2237;51.870;6.160;2023-01-24T04:13:57;18.60;;;8.20;;
4448;SDS011;2237;51.870;6.160;2023-01-24T04:16:23;18.75;;;8.63;;
4448;SDS011;2237;51.870;6.160;2023-01-24T04:18:50;17.52;;;8.80;;
4448;SDS011;2237;51.870;6.160;2023-01-24T04:21:16;17.75;;;8.40;;
4448;SDS011;2237;51.870;6.160;2023-01-24T04:23:42;18.02;;;9.18;;
4448;SDS011;2237;51.870;6.160;2023-01-24T04:26:08;19.73;;;8.55;;
4448;SDS011;2237;51.870;6.160;2023-01-24T04:28:35;18.77;;;8.68;;
4448;SDS011;2237;51.870;6.160;2023-01-24T04:31:01;18.17;;;7.82;;
4448;SDS011;2237;51.870;6.160;2023-01-24T04:33:28;17.95;;;8.13;;
4448;SDS011;2237;51.870;6.160;2023-01-24T04:35:58;19.17;;;8.68;;
4448;SDS011;2237;51.870;6.160;2023-01-24T04:38:24;18.42;;;8.15;;
4448;SDS011;2237;51.870;6.160;2023-01-24T04:41:00;19.85;;;7.97;;
4448;SDS011;2237;51.870;6.160;2023-01-24T04:43:27;17.33;;;7.78;;
4448;SDS011;2237;51.870;6.160;2023-01-24T04:45:56;16.33;;;7.97;;
4448;SDS011;2237;51.870;6.160;2023-01-24T04:48:23;17.90;;;8.60;;
4448;SDS011;2237;51.870;6.160;2023-01-24T04:50:49;16.10;;;7.53;;
4448;SDS011;2237;51.870;6.160;2023-01-24T04:53:16;17.75;;;8.15;;
4448;SDS011;2237;51.870;6.160;2023-01-24T04:55:42;18.30;;;6.95;;
4448;SDS011;2237;51.870;6.160;2023-01-24T04:58:08;17.25;;;7.97;;
4448;SDS011;2237;51.870;6.160;2023-01-24T05:00:34;18.55;;;8.50;;
4448;SDS011;2237;51.870;6.160;2023-01-24T05:03:00;18.35;;;8.45;;
4448;SDS011;2237;51.870;6.160;2023-01-24T05:05:27;20.02;;;9.20;;
4448;SDS011;2237;51.870;6.160;2023-01-24T05:07:53;18.85;;;8.60;;
4448;SDS011;2237;51.870;6.160;2023-01-24T05:10:19;19.27;;;7.97;;
4448;SDS011;2237;51.870;6.160;2023-01-24T05:12:47;17.63;;;9.25;;
4448;SDS011;2237;51.870;6.160;2023-01-24T05:15:13;19.23;;;8.80;;
4448;SDS011;2237;51.870;6.160;2023-01-24T05:17:42;22.70;;;9.70;;
4448;SDS011;2237;51.870;6.160;2023-01-24T05:20:09;18.73;;;8.80;;
4448;SDS011;2237;51.870;6.160;2023-01-24T05:22:35;21.85;;;9.27;;
4448;SDS011;2237;51.870;6.160;2023-01-24T05:25:02;18.63;;;8.77;;
4448;SDS011;2237;51.870;6.160;2023-01-24T05:27:28;16.63;;;8.25;;
4448;SDS011;2237;51.870;6.160;2023-01-24T05:29:54;19.27;;;8.75;;
4448;SDS011;2237;51.870;6.160;2023-01-24T05:32:20;18.08;;;7.60;;
4448;SDS011;2237;51.870;6.160;2023-01-24T05:34:47;19.77;;;8.73;;
4448;SDS011;2237;51.870;6.160;2023-01-24T05:37:13;21.35;;;9.60;;
4448;SDS011;2237;51.870;6.160;2023-01-24T05:39:39;19.00;;;9.13;;
4448;SDS011;2237;51.870;6.160;2023-01-24T05:42:06;19.80;;;8.90;;
4448;SDS011;2237;51.870;6.160;2023-01-24T05:44:32;19.75;;;8.82;;
4448;SDS011;2237;51.870;6.160;2023-01-24T05:46:58;18.58;;;9.02;;
4448;SDS011;2237;51.870;6.160;2023-01-24T05:49:24;21.23;;;9.60;;
4448;SDS011;2237;51.870;6.160;2023-01-24T05:51:51;21.10;;;9.57;;
4448;SDS011;2237;51.870;6.160;2023-01-24T05:54:17;17.98;;;8.52;;
4448;SDS011;2237;51.870;6.160;2023-01-24T05:56:43;19.42;;;8.65;;
4448;SDS011;2237;51.870;6.160;2023-01-24T05:59:09;19.73;;;9.25;;
4448;SDS011;2237;51.870;6.160;2023-01-24T06:01:36;18.02;;;8.55;;
4448;SDS011;2237;51.870;6.160;2023-01-24T06:04:02;19.80;;;9.00;;
4448;SDS011;2237;51.870;6.160;2023-01-24T06:06:30;17.95;;;8.70;;
4448;SDS011;2237;51.870;6.160;2023-01-24T06:08:57;21.05;;;9.43;;
4448;SDS011;2237;51.870;6.160;2023-01-24T06:11:25;21.48;;;10.05;;
4448;SDS011;2237;51.870;6.160;2023-01-24T06:13:53;20.88;;;9.18;;
4448;SDS011;2237;51.870;6.160;2023-01-24T06:16:20;22.00;;;9.57;;
4448;SDS011;2237;51.870;6.160;2023-01-24T06:18:47;20.60;;;9.55;;
4448;SDS011;2237;51.870;6.160;2023-01-24T06:21:23;19.58;;;9.35;;
4448;SDS011;2237;51.870;6.160;2023-01-24T06:23:54;17.45;;;8.20;;
4448;SDS011;2237;51.870;6.160;2023-01-24T06:26:20;17.95;;;8.30;;
4448;SDS011;2237;51.870;6.160;2023-01-24T06:28:46;21.70;;;9.43;;
4448;SDS011;2237;51.870;6.160;2023-01-24T06:31:20;23.55;;;9.40;;
4448;SDS011;2237;51.870;6.160;2023-01-24T06:38:44;20.45;;;9.40;;
4448;SDS011;2237;51.870;6.160;2023-01-24T06:41:13;21.95;;;8.60;;
4448;SDS011;2237;51.870;6.160;2023-01-24T06:43:40;18.75;;;8.35;;
4448;SDS011;2237;51.870;6.160;2023-01-24T06:46:08;19.17;;;8.73;;
4448;SDS011;2237;51.870;6.160;2023-01-24T06:48:34;17.02;;;7.10;;
4448;SDS011;2237;51.870;6.160;2023-01-24T06:51:00;20.83;;;9.23;;
4448;SDS011;2237;51.870;6.160;2023-01-24T06:53:26;23.30;;;9.65;;
4448;SDS011;2237;51.870;6.160;2023-01-24T06:55:53;13.85;;;6.03;;
4448;SDS011;2237;51.870;6.160;2023-01-24T06:58:19;19.25;;;8.70;;
4448;SDS011;2237;51.870;6.160;2023-01-24T07:00:45;19.80;;;8.75;;
4448;SDS011;2237;51.870;6.160;2023-01-24T07:03:11;19.88;;;8.48;;
4448;SDS011;2237;51.870;6.160;2023-01-24T07:05:38;20.40;;;9.65;;
4448;SDS011;2237;51.870;6.160;2023-01-24T07:08:05;19.75;;;8.32;;
4448;SDS011;2237;51.870;6.160;2023-01-24T07:10:32;20.40;;;8.60;;
4448;SDS011;2237;51.870;6.160;2023-01-24T07:12:58;20.27;;;9.35;;
4448;SDS011;2237;51.870;6.160;2023-01-24T07:15:25;21.10;;;9.48;;
4448;SDS011;2237;51.870;6.160;2023-01-24T07:17:51;20.10;;;9.48;;
4448;SDS011;2237;51.870;6.160;2023-01-24T07:20:17;21.58;;;9.18;;
4448;SDS011;2237;51.870;6.160;2023-01-24T07:22:44;19.80;;;8.93;;
4448;SDS011;2237;51.870;6.160;2023-01-24T07:25:14;20.30;;;9.13;;
4448;SDS011;2237;51.870;6.160;2023-01-24T07:27:44;20.13;;;8.77;;
4448;SDS011;2237;51.870;6.160;2023-01-24T07:30:11;17.95;;;8.32;;
4448;SDS011;2237;51.870;6.160;2023-01-24T07:32:37;24.83;;;10.13;;
4448;SDS011;2237;51.870;6.160;2023-01-24T07:35:04;20.52;;;9.65;;
4448;SDS011;2237;51.870;6.160;2023-01-24T07:37:31;20.45;;;9.15;;
4448;SDS011;2237;51.870;6.160;2023-01-24T07:39:57;23.05;;;9.45;;
4448;SDS011;2237;51.870;6.160;2023-01-24T07:42:24;20.50;;;8.00;;
4448;SDS011;2237;51.870;6.160;2023-01-24T07:44:50;19.02;;;8.27;;
4448;SDS011;2237;51.870;6.160;2023-01-24T07:47:16;19.05;;;8.85;;
4448;SDS011;2237;51.870;6.160;2023-01-24T07:49:43;19.52;;;8.70;;
4448;SDS011;2237;51.870;6.160;2023-01-24T07:52:09;21.83;;;9.13;;
4448;SDS011;2237;51.870;6.160;2023-01-24T07:54:35;21.95;;;9.75;;
4448;SDS011;2237;51.870;6.160;2023-01-24T07:57:02;19.45;;;8.70;;
4448;SDS011;2237;51.870;6.160;2023-01-24T07:59:28;20.77;;;8.43;;
4448;SDS011;2237;51.870;6.160;2023-01-24T08:02:04;19.75;;;8.48;;
4448;SDS011;2237;51.870;6.160;2023-01-24T08:04:30;20.88;;;9.40;;
4448;SDS011;2237;51.870;6.160;2023-01-24T08:06:57;21.10;;;8.50;;
4448;SDS011;2237;51.870;6.160;2023-01-24T08:09:42;20.63;;;8.50;;
4448;SDS011;2237;51.870;6.160;2023-01-24T08:12:08;21.85;;;8.57;;
4448;SDS011;2237;51.870;6.160;2023-01-24T08:14:34;21.90;;;8.85;;
4448;SDS011;2237;51.870;6.160;2023-01-24T08:17:01;22.63;;;9.85;;
4448;SDS011;2237;51.870;6.160;2023-01-24T08:19:27;15.82;;;7.75;;
4448;SDS011;2237;51.870;6.160;2023-01-24T08:22:13;17.85;;;8.00;;
4448;SDS011;2237;51.870;6.160;2023-01-24T08:24:39;21.00;;;9.02;;
4448;SDS011;2237;51.870;6.160;2023-01-24T08:27:05;19.35;;;8.57;;
4448;SDS011;2237;51.870;6.160;2023-01-24T08:29:32;17.08;;;7.80;;
4448;SDS011;2237;51.870;6.160;2023-01-24T08:31:58;20.58;;;9.65;;
4448;SDS011;2237;51.870;6.160;2023-01-24T08:34:25;20.63;;;9.45;;
4448;SDS011;2237;51.870;6.160;2023-01-24T08:36:52;18.83;;;8.65;;
4448;SDS011;2237;51.870;6.160;2023-01-24T08:39:18;21.15;;;9.48;;
4448;SDS011;2237;51.870;6.160;2023-01-24T08:41:53;23.08;;;10.63;;
4448;SDS011;2237;51.870;6.160;2023-01-24T08:44:20;20.83;;;8.88;;
4448;SDS011;2237;51.870;6.160;2023-01-24T08:46:46;18.60;;;8.68;;
4448;SDS011;2237;51.870;6.160;2023-01-24T08:49:12;22.00;;;9.18;;
4448;SDS011;2237;51.870;6.160;2023-01-24T08:51:38;15.77;;;7.68;;
4448;SDS011;2237;51.870;6.160;2023-01-24T08:54:05;16.83;;;7.88;;
4448;SDS011;2237;51.870;6.160;2023-01-24T08:56:32;16.65;;;8.65;;
4448;SDS011;2237;51.870;6.160;2023-01-24T08:58:59;18.08;;;7.85;;
4448;SDS011;2237;51.870;6.160;2023-01-24T09:01:25;16.20;;;7.15;;
4448;SDS011;2237;51.870;6.160;2023-01-24T09:03:52;19.10;;;7.75;;
4448;SDS011;2237;51.870;6.160;2023-01-24T09:06:20;15.93;;;7.43;;
4448;SDS011;2237;51.870;6.160;2023-01-24T09:08:47;14.15;;;6.53;;
4448;SDS011;2237;51.870;6.160;2023-01-24T09:11:13;16.25;;;6.25;;
4448;SDS011;2237;51.870;6.160;2023-01-24T09:13:39;14.65;;;7.00;;
4448;SDS011;2237;51.870;6.160;2023-01-24T09:16:06;13.50;;;6.55;;
4448;SDS011;2237;51.870;6.160;2023-01-24T09:18:32;16.33;;;7.40;;
4448;SDS011;2237;51.870;6.160;2023-01-24T09:21:01;16.58;;;7.80;;
4448;SDS011;2237;51.870;6.160;2023-01-24T09:23:28;15.40;;;6.67;;
4448;SDS011;2237;51.870;6.160;2023-01-24T09:25:55;12.57;;;5.60;;
4448;SDS011;2237;51.870;6.160;2023-01-24T09:28:21;16.90;;;7.38;;
4448;SDS011;2237;51.870;6.160;2023-01-24T09:30:48;15.75;;;7.13;;
4448;SDS011;2237;51.870;6.160;2023-01-24T09:33:15;13.90;;;6.78;;
4448;SDS011;2237;51.870;6.160;2023-01-24T09:35:52;17.00;;;8.05;;
4448;SDS011;2237;51.870;6.160;2023-01-24T09:38:19;16.73;;;7.28;;
4448;SDS011;2237;51.870;6.160;2023-01-24T09:40:48;15.20;;;7.10;;
4448;SDS011;2237;51.870;6.160;2023-01-24T09:46:00;14.80;;;7.38;;
4448;SDS011;2237;51.870;6.160;2023-01-24T09:48:32;14.65;;;6.95;;
4448;SDS011;2237;51.870;6.160;2023-01-24T09:50:59;15.20;;;7.28;;
4448;SDS011;2237;51.870;6.160;2023-01-24T09:53:35;16.70;;;7.32;;
4448;SDS011;2237;51.870;6.160;2023-01-24T09:56:03;15.50;;;6.88;;
4448;SDS011;2237;51.870;6.160;2023-01-24T09:58:39;15.07;;;7.03;;
4448;SDS011;2237;51.870;6.160;2023-01-24T10:01:10;20.35;;;8.90;;
4448;SDS011;2237;51.870;6.160;2023-01-24T10:03:37;14.95;;;7.30;;
4448;SDS011;2237;51.870;6.160;2023-01-24T10:06:08;14.18;;;7.57;;
4448;SDS011;2237;51.870;6.160;2023-01-24T10:08:50;17.15;;;7.50;;
4448;SDS011;2237;51.870;6.160;2023-01-24T10:11:23;14.80;;;6.82;;
4448;SDS011;2237;51.870;6.160;2023-01-24T10:13:57;14.68;;;7.00;;
4448;SDS011;2237;51.870;6.160;2023-01-24T10:23:54;12.65;;;6.43;;
4448;SDS011;2237;51.870;6.160;2023-01-24T10:28:52;13.48;;;6.53;;
4448;SDS011;2237;51.870;6.160;2023-01-24T10:31:34;13.98;;;6.82;;
4448;SDS011;2237;51.870;6.160;2023-01-24T10:34:14;10.85;;;5.22;;
4448;SDS011;2237;51.870;6.160;2023-01-24T10:36:49;13.32;;;6.22;;
4448;SDS011;2237;51.870;6.160;2023-01-24T10:39:16;11.05;;;6.05;;
4448;SDS011;2237;51.870;6.160;2023-01-24T10:41:42;10.90;;;4.72;;
4448;SDS011;2237;51.870;6.160;2023-01-24T10:44:13;15.00;;;6.35;;
4448;SDS011;2237;51.870;6.160;2023-01-24T10:49:26;13.40;;;5.32;;
4448;SDS011;2237;51.870;6.160;2023-01-24T10:54:42;12.35;;;6.00;;
4448;SDS011;2237;51.870;6.160;2023-01-24T10:59:50;11.18;;;5.50;;
4448;SDS011;2237;51.870;6.160;2023-01-24T11:02:21;10.40;;;5.18;;
4448;SDS011;2237;51.870;6.160;2023-01-24T11:07:25;13.98;;;5.70;;
4448;SDS011;2237;51.870;6.160;2023-01-24T11:09:52;12.40;;;5.82;;
4448;SDS011;2237;51.870;6.160;2023-01-24T11:12:19;10.65;;;4.75;;
4448;SDS011;2237;51.870;6.160;2023-01-24T11:14:47;10.50;;;5.45;;
4448;SDS011;2237;51.870;6.160;2023-01-24T11:17:31;12.73;;;5.70;;
4448;SDS011;2237;51.870;6.160;2023-01-24T11:23:14;13.77;;;5.05;;
4448;SDS011;2237;51.870;6.160;2023-01-24T11:25:51;11.43;;;6.22;;
4448;SDS011;2237;51.870;6.160;2023-01-24T11:28:25;12.35;;;5.32;;
4448;SDS011;2237;51.870;6.160;2023-01-24T11:30:52;11.98;;;5.07;;
4448;SDS011;2237;51.870;6.160;2023-01-24T11:36:16;17.88;;;6.15;;
4448;SDS011;2237;51.870;6.160;2023-01-24T11:38:48;10.02;;;5.10;;
4448;SDS011;2237;51.870;6.160;2023-01-24T11:44:03;9.20;;;5.15;;
4448;SDS011;2237;51.870;6.160;2023-01-24T11:51:50;12.75;;;5.50;;
4448;SDS011;2237;51.870;6.160;2023-01-24T11:55:07;18.95;;;6.45;;
4448;SDS011;2237;51.870;6.160;2023-01-24T12:07:19;10.98;;;5.65;;
4448;SDS011;2237;51.870;6.160;2023-01-24T12:09:48;14.38;;;5.40;;
4448;SDS011;2237;51.870;6.160;2023-01-24T12:17:37;10.00;;;5.45;;
4448;SDS011;2237;51.870;6.160;2023-01-24T12:20:25;9.85;;;5.28;;
4448;SDS011;2237;51.870;6.160;2023-01-24T12:22:57;8.70;;;4.07;;
4448;SDS011;2237;51.870;6.160;2023-01-24T12:25:26;14.85;;;5.75;;
4448;SDS011;2237;51.870;6.160;2023-01-24T12:30:27;10.93;;;5.90;;
4448;SDS011;2237;51.870;6.160;2023-01-24T12:32:59;15.93;;;5.68;;
4448;SDS011;2237;51.870;6.160;2023-01-24T12:35:32;10.10;;;5.30;;
4448;SDS011;2237;51.870;6.160;2023-01-24T12:40:49;12.38;;;5.47;;
4448;SDS011;2237;51.870;6.160;2023-01-24T12:53:31;12.30;;;6.10;;
4448;SDS011;2237;51.870;6.160;2023-01-24T12:58:31;13.27;;;5.65;;
4448;SDS011;2237;51.870;6.160;2023-01-24T13:01:07;12.85;;;5.50;;
4448;SDS011;2237;51.870;6.160;2023-01-24T13:03:42;9.75;;;5.10;;
4448;SDS011;2237;51.870;6.160;2023-01-24T13:11:25;13.05;;;5.85;;
4448;SDS011;2237;51.870;6.160;2023-01-24T13:21:43;13.30;;;5.40;;
4448;SDS011;2237;51.870;6.160;2023-01-24T13:32:11;11.73;;;5.65;;
4448;SDS011;2237;51.870;6.160;2023-01-24T13:34:43;25.27;;;7.38;;
4448;SDS011;2237;51.870;6.160;2023-01-24T13:37:15;10.25;;;5.20;;
4448;SDS011;2237;51.870;6.160;2023-01-24T13:39:42;13.55;;;5.75;;
4448;SDS011;2237;51.870;6.160;2023-01-24T13:44:45;12.85;;;6.07;;
4448;SDS011;2237;51.870;6.160;2023-01-24T13:49:45;10.82;;;5.32;;
4448;SDS011;2237;51.870;6.160;2023-01-24T13:54:56;11.80;;;5.72;;
4448;SDS011;2237;51.870;6.160;2023-01-24T13:57:24;13.45;;;5.43;;
4448;SDS011;2237;51.870;6.160;2023-01-24T14:05:02;10.60;;;5.05;;
4448;SDS011;2237;51.870;6.160;2023-01-24T14:07:29;11.00;;;5.60;;
4448;SDS011;2237;51.870;6.160;2023-01-24T14:09:58;14.30;;;6.22;;
4448;SDS011;2237;51.870;6.160;2023-01-24T14:12:25;10.82;;;5.07;;
4448;SDS011;2237;51.870;6.160;2023-01-24T14:20:02;11.20;;;5.20;;
4448;SDS011;2237;51.870;6.160;2023-01-24T14:22:32;14.57;;;5.72;;
4448;SDS011;2237;51.870;6.160;2023-01-24T14:25:23;13.30;;;5.83;;
4448;SDS011;2237;51.870;6.160;2023-01-24T14:27:53;12.48;;;6.15;;
4448;SDS011;2237;51.870;6.160;2023-01-24T14:30:25;10.55;;;4.85;;
4448;SDS011;2237;51.870;6.160;2023-01-24T14:32:54;10.32;;;5.10;;
4448;SDS011;2237;51.870;6.160;2023-01-24T14:35:25;10.93;;;5.47;;
4448;SDS011;2237;51.870;6.160;2023-01-24T14:37:53;10.60;;;5.80;;
4448;SDS011;2237;51.870;6.160;2023-01-24T14:42:49;13.88;;;5.57;;
4448;SDS011;2237;51.870;6.160;2023-01-24T14:45:17;11.52;;;5.22;;
4448;SDS011;2237;51.870;6.160;2023-01-24T14:47:46;11.02;;;5.45;;
4448;SDS011;2237;51.870;6.160;2023-01-24T14:50:30;10.23;;;4.60;;
4448;SDS011;2237;51.870;6.160;2023-01-24T14:52:59;9.35;;;4.60;;
4448;SDS011;2237;51.870;6.160;2023-01-24T14:57:52;10.60;;;5.30;;
4448;SDS011;2237;51.870;6.160;2023-01-24T15:00:20;11.80;;;5.40;;
4448;SDS011;2237;51.870;6.160;2023-01-24T15:02:50;12.82;;;5.50;;
4448;SDS011;2237;51.870;6.160;2023-01-24T15:05:21;13.88;;;5.72;;
4448;SDS011;2237;51.870;6.160;2023-01-24T15:07:48;11.85;;;5.13;;
4448;SDS011;2237;51.870;6.160;2023-01-24T15:10:14;12.63;;;6.15;;
4448;SDS011;2237;51.870;6.160;2023-01-24T15:12:41;12.75;;;6.20;;
4448;SDS011;2237;51.870;6.160;2023-01-24T15:15:10;12.55;;;5.55;;
4448;SDS011;2237;51.870;6.160;2023-01-24T15:17:43;12.73;;;6.13;;
4448;SDS011;2237;51.870;6.160;2023-01-24T15:20:10;13.60;;;5.82;;
4448;SDS011;2237;51.870;6.160;2023-01-24T15:22:38;12.50;;;5.63;;
4448;SDS011;2237;51.870;6.160;2023-01-24T15:25:17;12.05;;;5.72;;
4448;SDS011;2237;51.870;6.160;2023-01-24T15:27:44;13.10;;;6.35;;
4448;SDS011;2237;51.870;6.160;2023-01-24T15:32:43;12.80;;;5.72;;
4448;SDS011;2237;51.870;6.160;2023-01-24T15:35:18;14.60;;;6.65;;
4448;SDS011;2237;51.870;6.160;2023-01-24T15:37:45;13.77;;;5.80;;
4448;SDS011;2237;51.870;6.160;2023-01-24T15:40:16;12.23;;;6.43;;
4448;SDS011;2237;51.870;6.160;2023-01-24T15:42:46;12.30;;;6.18;;
4448;SDS011;2237;51.870;6.160;2023-01-24T15:45:36;14.43;;;6.05;;
4448;SDS011;2237;51.870;6.160;2023-01-24T15:50:36;14.45;;;5.70;;
4448;SDS011;2237;51.870;6.160;2023-01-24T15:53:25;12.77;;;6.60;;
4448;SDS011;2237;51.870;6.160;2023-01-24T15:55:54;15.57;;;6.35;;
4448;SDS011;2237;51.870;6.160;2023-01-24T15:58:29;17.80;;;7.35;;
4448;SDS011;2237;51.870;6.160;2023-01-24T16:00:57;22.48;;;8.07;;
4448;SDS011;2237;51.870;6.160;2023-01-24T16:03:24;15.35;;;6.63;;
4448;SDS011;2237;51.870;6.160;2023-01-24T16:05:51;15.85;;;7.57;;
4448;SDS011;2237;51.870;6.160;2023-01-24T16:08:17;16.00;;;6.88;;
4448;SDS011;2237;51.870;6.160;2023-01-24T16:10:44;20.20;;;8.60;;
4448;SDS011;2237;51.870;6.160;2023-01-24T16:13:21;18.10;;;7.55;;
4448;SDS011;2237;51.870;6.160;2023-01-24T16:15:50;17.88;;;8.25;;
4448;SDS011;2237;51.870;6.160;2023-01-24T16:18:17;16.65;;;7.80;;
4448;SDS011;2237;51.870;6.160;2023-01-24T16:20:43;16.80;;;7.68;;
4448;SDS011;2237;51.870;6.160;2023-01-24T16:23:09;16.75;;;6.78;;
4448;SDS011;2237;51.870;6.160;2023-01-24T16:25:35;13.63;;;6.78;;
4448;SDS011;2237;51.870;6.160;2023-01-24T16:28:02;17.00;;;7.10;;
4448;SDS011;2237;51.870;6.160;2023-01-24T16:30:29;13.32;;;6.47;;
4448;SDS011;2237;51.870;6.160;2023-01-24T16:32:55;14.73;;;6.50;;
4448;SDS011;2237;51.870;6.160;2023-01-24T16:35:21;13.52;;;5.57;;
4448;SDS011;2237;51.870;6.160;2023-01-24T16:37:48;16.77;;;7.50;;
4448;SDS011;2237;51.870;6.160;2023-01-24T16:40:15;15.10;;;7.25;;
4448;SDS011;2237;51.870;6.160;2023-01-24T16:42:43;15.82;;;7.30;;
4448;SDS011;2237;51.870;6.160;2023-01-24T16:45:13;14.68;;;7.10;;
4448;SDS011;2237;51.870;6.160;2023-01-24T16:47:40;15.18;;;6.10;;
4448;SDS011;2237;51.870;6.160;2023-01-24T16:50:06;14.98;;;7.07;;
4448;SDS011;2237;51.870;6.160;2023-01-24T16:52:33;19.67;;;7.80;;
4448;SDS011;2237;51.870;6.160;2023-01-24T16:54:59;16.63;;;5.50;;
4448;SDS011;2237;51.870;6.160;2023-01-24T16:57:25;16.98;;;6.47;;
4448;SDS011;2237;51.870;6.160;2023-01-24T16:59:51;20.45;;;7.50;;
4448;SDS011;2237;51.870;6.160;2023-01-24T17:02:18;15.38;;;7.13;;
4448;SDS011;2237;51.870;6.160;2023-01-24T17:04:46;15.55;;;7.50;;
4448;SDS011;2237;51.870;6.160;2023-01-24T17:07:12;14.50;;;7.03;;
4448;SDS011;2237;51.870;6.160;2023-01-24T17:09:39;17.05;;;7.60;;
4448;SDS011;2237;51.870;6.160;2023-01-24T17:12:05;14.25;;;7.18;;
4448;SDS011;2237;51.870;6.160;2023-01-24T17:14:40;13.30;;;6.68;;
4448;SDS011;2237;51.870;6.160;2023-01-24T17:17:27;18.10;;;7.30;;
4448;SDS011;2237;51.870;6.160;2023-01-24T17:19:53;15.93;;;7.05;;
4448;SDS011;2237;51.870;6.160;2023-01-24T17:22:19;16.90;;;7.60;;
4448;SDS011;2237;51.870;6.160;2023-01-24T17:24:46;14.73;;;5.95;;